Time;durP1;ratioP1;P1;durP2;ratioP2;P2;SDS_P1;SDS_P2;PMS_P1;PMS_P2;Temp;Humidity;BMP_temperature;BMP_pressure;BME280_temperature;BME280_humidity;BME280_pressure;Samples;Min_cycle;Max_cycle;Signal;HPM_P1;HPM_P2
2023/05/06 00:01:28;;;;;;;1.00;0.22;;;20.30;63.20;;;;;;4994067;28;20069;-72
2023/05/06 00:03:55;;;;;;;0.82;0.40;;;20.30;63.20;;;;;;4993877;28;20061;-72
2023/05/06 00:06:22;;;;;;;1.13;0.30;;;20.30;63.80;;;;;;4994184;28;20097;-73
2023/05/06 00:08:49;;;;;;;1.08;0.28;;;20.20;63.10;;;;;;4994035;28;20050;-73
2023/05/06 00:11:16;;;;;;;1.10;0.40;;;20.20;63.70;;;;;;4993770;28;20050;-73
2023/05/06 00:13:44;;;;;;;1.17;0.30;;;20.20;63.10;;;;;;4993490;28;20086;-72
2023/05/06 00:16:11;;;;;;;1.00;0.40;;;20.30;63.20;;;;;;4993740;28;20050;-72
2023/05/06 00:18:39;;;;;;;1.25;0.35;;;20.30;63.20;;;;;;4993893;28;20050;-72
2023/05/06 00:21:07;;;;;;;2.10;0.40;;;20.30;63.20;;;;;;4993507;28;20050;-71
2023/05/06 00:23:34;;;;;;;1.20;0.40;;;20.30;63.10;;;;;;4993435;28;20050;-72
2023/05/06 00:26:01;;;;;;;1.25;0.40;;;20.20;63.10;;;;;;5009426;28;20046;-72
2023/05/06 00:28:27;;;;;;;1.10;0.30;;;20.30;63.10;;;;;;5013210;28;20068;-72
2023/05/06 00:30:56;;;;;;;0.93;0.30;;;20.30;63.10;;;;;;5011450;28;20053;-72
2023/05/06 00:33:23;;;;;;;0.80;0.22;;;20.30;63.10;;;;;;5012784;28;20578;-72
2023/05/06 00:35:51;;;;;;;0.93;0.38;;;20.20;63.10;;;;;;5011256;28;20057;-72
2023/05/06 00:38:19;;;;;;;1.02;0.30;;;20.20;63.10;;;;;;5011457;28;20058;-73
2023/05/06 00:40:46;;;;;;;1.40;0.35;;;20.20;63.10;;;;;;5012780;28;20125;-72
2023/05/06 00:43:13;;;;;;;0.82;0.20;;;20.20;63.10;;;;;;5012525;28;20053;-72
2023/05/06 00:45:40;;;;;;;1.02;0.40;;;20.30;63.10;;;;;;5010815;28;20128;-72
2023/05/06 00:48:09;;;;;;;1.33;0.52;;;20.20;63.10;;;;;;5011398;28;20058;-73
2023/05/06 00:50:36;;;;;;;1.20;0.55;;;20.20;63.10;;;;;;5012362;28;20054;-72
2023/05/06 00:53:05;;;;;;;0.95;0.30;;;20.30;63.10;;;;;;5011056;28;20060;-72
2023/05/06 00:55:33;;;;;;;1.10;0.30;;;20.30;63.20;;;;;;4992822;28;20054;-73
2023/05/06 00:58:00;;;;;;;1.30;0.30;;;20.20;63.10;;;;;;4991490;28;20050;-72
2023/05/06 01:00:28;;;;;;;0.82;0.32;;;20.20;63.10;;;;;;4992864;28;20069;-72
2023/05/06 01:02:55;;;;;;;0.80;0.20;;;20.20;63.10;;;;;;4992475;28;20062;-72
2023/05/06 01:05:29;;;;;;;0.90;0.40;;;20.20;63.10;;;;;;4990985;28;20046;-72
2023/05/06 01:08:06;;;;;;;1.00;0.25;;;20.20;63.10;;;;;;4992555;28;20138;-72
2023/05/06 01:10:38;;;;;;;0.95;0.30;;;20.20;63.10;;;;;;4992767;28;20108;-72
2023/05/06 01:13:12;;;;;;;1.75;0.30;;;20.20;63.10;;;;;;4990986;28;20054;-72
2023/05/06 01:15:44;;;;;;;0.95;0.30;;;20.20;63.50;;;;;;4992548;28;20066;-72
2023/05/06 01:18:16;;;;;;;0.80;0.20;;;20.20;63.10;;;;;;4991208;28;20058;-73
2023/05/06 01:20:48;;;;;;;1.17;0.35;;;20.20;63.10;;;;;;4992390;28;20058;-72
2023/05/06 01:23:18;;;;;;;1.25;0.45;;;20.20;63.10;;;;;;4992414;28;20050;-72
2023/05/06 01:25:45;;;;;;;1.10;0.35;;;20.20;63.10;;;;;;4992108;28;20053;-72
2023/05/06 01:28:13;;;;;;;0.88;0.30;;;20.20;63.10;;;;;;4991815;28;20054;-72
2023/05/06 01:30:47;;;;;;;1.17;0.30;;;20.20;63.10;;;;;;4992283;28;20054;-72
2023/05/06 01:33:20;;;;;;;1.20;0.70;;;20.20;63.10;;;;;;4992267;28;20050;-70
2023/05/06 01:35:54;;;;;;;1.40;0.30;;;20.20;63.10;;;;;;4992125;28;20058;-71
2023/05/06 01:38:33;;;;;;;0.90;0.30;;;20.20;63.10;;;;;;4991893;28;20142;-70
2023/05/06 01:41:01;;;;;;;1.02;0.35;;;20.20;63.10;;;;;;4990711;28;20062;-72
2023/05/06 01:43:33;;;;;;;0.95;0.28;;;20.20;63.10;;;;;;4991749;28;20054;-72
2023/05/06 01:46:01;;;;;;;0.85;0.22;;;20.20;63.10;;;;;;4991709;28;20112;-73
2023/05/06 01:48:31;;;;;;;1.33;0.40;;;20.20;63.10;;;;;;4990680;28;20496;-72
2023/05/06 01:50:58;;;;;;;1.08;0.30;;;20.20;63.10;;;;;;4991565;28;20647;-72
2023/05/06 01:53:27;;;;;;;0.88;0.28;;;20.20;63.10;;;;;;4990281;28;20050;-72
2023/05/06 01:55:54;;;;;;;1.13;0.40;;;20.20;63.10;;;;;;4990388;28;20389;-72
2023/05/06 01:58:21;;;;;;;1.20;0.43;;;20.10;63.10;;;;;;4991408;28;20050;-72
2023/05/06 02:00:48;;;;;;;0.98;0.40;;;20.20;63.10;;;;;;4991775;28;20057;-72
2023/05/06 02:03:14;;;;;;;0.63;0.20;;;20.10;63.10;;;;;;4990236;28;20054;-72
2023/05/06 02:05:41;;;;;;;1.30;0.60;;;20.10;63.10;;;;;;4991407;28;20514;-72
2023/05/06 02:08:08;;;;;;;1.30;0.43;;;20.10;63.10;;;;;;4990192;28;20073;-72
2023/05/06 02:10:37;;;;;;;1.33;0.35;;;20.10;63.10;;;;;;4990082;28;20066;-73
2023/05/06 02:13:04;;;;;;;0.80;0.30;;;20.10;63.10;;;;;;4989878;28;20057;-72
2023/05/06 02:15:31;;;;;;;1.25;0.35;;;20.10;63.10;;;;;;4990260;28;20069;-72
2023/05/06 02:18:00;;;;;;;1.38;0.40;;;20.10;63.10;;;;;;4989786;28;20451;-73
2023/05/06 02:20:27;;;;;;;1.20;0.30;;;20.10;63.10;;;;;;4990222;28;20500;-72
2023/05/06 02:22:54;;;;;;;1.02;0.25;;;20.10;63.10;;;;;;4991478;28;20054;-72
2023/05/06 02:25:21;;;;;;;1.42;0.40;;;20.10;63.10;;;;;;4990859;28;20058;-71
2023/05/06 02:27:50;;;;;;;0.85;0.22;;;20.10;63.10;;;;;;4991007;28;20054;-72
2023/05/06 02:30:17;;;;;;;1.23;0.30;;;20.10;63.10;;;;;;4989628;28;20058;-72
2023/05/06 02:32:43;;;;;;;1.10;0.40;;;20.10;63.10;;;;;;4990946;28;20829;-73
2023/05/06 02:35:10;;;;;;;1.23;0.30;;;20.10;63.10;;;;;;4990912;28;20054;-72
2023/05/06 02:37:37;;;;;;;1.00;0.25;;;20.10;63.10;;;;;;4989822;28;20058;-72
2023/05/06 02:40:05;;;;;;;1.20;0.45;;;20.10;63.10;;;;;;4991075;28;20058;-72
2023/05/06 02:42:33;;;;;;;1.30;0.35;;;20.10;63.10;;;;;;4989457;28;20089;-73
2023/05/06 02:45:01;;;;;;;0.80;0.30;;;20.10;63.10;;;;;;4990847;28;20054;-72
2023/05/06 02:47:28;;;;;;;0.93;0.28;;;20.10;63.10;;;;;;4989727;28;20050;-72
2023/05/06 02:49:55;;;;;;;0.65;0.20;;;20.10;63.10;;;;;;4990970;28;20058;-72
2023/05/06 02:52:22;;;;;;;0.75;0.20;;;20.00;63.10;;;;;;4991154;28;20065;-71
2023/05/06 02:54:49;;;;;;;0.75;0.20;;;20.10;63.10;;;;;;4989941;28;20073;-72
2023/05/06 02:57:16;;;;;;;0.70;0.20;;;20.00;63.10;;;;;;4990955;28;20069;-73
2023/05/06 02:59:43;;;;;;;1.13;0.22;;;20.00;63.10;;;;;;4989762;28;20055;-72
2023/05/06 03:02:12;;;;;;;0.85;0.25;;;20.00;63.00;;;;;;4990849;28;20054;-72
2023/05/06 03:04:38;;;;;;;1.08;0.20;;;20.00;63.00;;;;;;4989451;28;20058;-72
2023/05/06 03:07:05;;;;;;;0.90;0.20;;;20.00;63.10;;;;;;4989784;28;20073;-72
2023/05/06 03:09:32;;;;;;;0.93;0.30;;;20.00;63.70;;;;;;4990273;28;20048;-72
2023/05/06 03:11:59;;;;;;;1.30;0.30;;;20.00;63.00;;;;;;4989792;28;20062;-72
2023/05/06 03:14:26;;;;;;;0.90;0.30;;;20.00;63.00;;;;;;4989083;28;20061;-72
2023/05/06 03:16:53;;;;;;;0.88;0.20;;;20.00;63.10;;;;;;4998655;28;20112;-72
2023/05/06 03:19:21;;;;;;;1.13;0.40;;;20.00;63.10;;;;;;5010463;28;20046;-72
2023/05/06 03:21:48;;;;;;;1.30;0.22;;;20.00;63.10;;;;;;5010247;28;20487;-72
2023/05/06 03:24:15;;;;;;;0.65;0.20;;;20.00;63.00;;;;;;5010171;28;20104;-72
2023/05/06 03:26:42;;;;;;;1.05;0.30;;;20.00;63.10;;;;;;5008094;28;20062;-71
2023/05/06 03:29:10;;;;;;;0.90;0.25;;;20.00;63.10;;;;;;5009859;28;20053;-72
2023/05/06 03:31:37;;;;;;;1.27;0.30;;;20.00;63.10;;;;;;5010028;28;20199;-72
2023/05/06 03:34:03;;;;;;;0.90;0.20;;;20.00;63.10;;;;;;5010106;28;20072;-73
2023/05/06 03:36:32;;;;;;;0.88;0.22;;;20.00;63.10;;;;;;5009854;28;20053;-72
2023/05/06 03:38:59;;;;;;;0.93;0.30;;;20.00;63.10;;;;;;5008630;28;20057;-72
2023/05/06 03:41:26;;;;;;;0.90;0.20;;;20.00;63.10;;;;;;5009867;28;20646;-72
2023/05/06 03:43:54;;;;;;;0.85;0.28;;;20.00;63.10;;;;;;5008305;28;20053;-72
2023/05/06 03:46:21;;;;;;;0.80;0.28;;;19.90;63.00;;;;;;5009888;28;20053;-72
2023/05/06 03:48:48;;;;;;;1.20;0.30;;;20.00;63.10;;;;;;5008530;28;20049;-73
2023/05/06 03:51:15;;;;;;;1.33;0.40;;;20.00;63.10;;;;;;4990462;28;20050;-71
2023/05/06 03:53:43;;;;;;;1.02;0.30;;;20.00;63.10;;;;;;4990110;28;20050;-71
2023/05/06 03:56:10;;;;;;;1.02;0.30;;;19.90;63.00;;;;;;4990215;28;20514;-72
2023/05/06 03:58:37;;;;;;;0.80;0.25;;;19.90;63.00;;;;;;4989251;28;20050;-72
2023/05/06 04:01:04;;;;;;;0.82;0.55;;;20.00;63.10;;;;;;4990372;28;20463;-72
2023/05/06 04:03:31;;;;;;;0.88;0.30;;;19.90;63.00;;;;;;4990120;28;20086;-71
2023/05/06 04:05:58;;;;;;;0.82;0.30;;;19.90;63.00;;;;;;4988718;28;20056;-71
2023/05/06 04:08:25;;;;;;;0.60;0.35;;;19.90;63.60;;;;;;4990042;28;20058;-73
2023/05/06 04:10:53;;;;;;;0.85;0.30;;;19.90;63.00;;;;;;4988798;28;20054;-72
2023/05/06 04:13:20;;;;;;;1.17;0.20;;;19.90;63.00;;;;;;4989622;28;20061;-71
2023/05/06 04:15:48;;;;;;;0.73;0.32;;;19.90;63.00;;;;;;4990043;28;20054;-72
2023/05/06 04:18:17;;;;;;;1.20;0.30;;;20.00;63.10;;;;;;4989849;28;20548;-72
2023/05/06 04:20:46;;;;;;;1.10;0.20;;;19.90;63.00;;;;;;4990161;28;20793;-72
2023/05/06 04:23:13;;;;;;;0.90;0.30;;;19.90;63.00;;;;;;4993287;28;20046;-72
2023/05/06 04:25:41;;;;;;;1.02;0.25;;;19.90;63.00;;;;;;4991670;28;20057;-72
2023/05/06 04:28:10;;;;;;;0.90;0.40;;;19.90;63.00;;;;;;4993243;28;20058;-72
2023/05/06 04:30:37;;;;;;;0.70;0.15;;;19.90;63.00;;;;;;4991877;28;20515;-72
2023/05/06 04:33:04;;;;;;;0.90;0.25;;;19.90;63.00;;;;;;4993561;28;20046;-72
2023/05/06 04:35:31;;;;;;;0.80;0.40;;;19.90;62.90;;;;;;4991766;28;20054;-71
2023/05/06 04:37:59;;;;;;;0.60;0.20;;;19.90;63.00;;;;;;4993098;28;20049;-72
2023/05/06 04:40:27;;;;;;;0.88;0.20;;;19.90;63.00;;;;;;4993411;28;20054;-73
2023/05/06 04:42:54;;;;;;;0.73;0.20;;;19.90;63.10;;;;;;4991339;28;20137;-72
2023/05/06 04:45:23;;;;;;;0.70;0.28;;;19.90;63.00;;;;;;4993289;28;20174;-72
2023/05/06 04:47:51;;;;;;;0.80;0.20;;;19.90;63.00;;;;;;4991781;28;20518;-72
2023/05/06 04:50:18;;;;;;;0.95;0.40;;;19.90;63.00;;;;;;4992684;28;20463;-72
2023/05/06 04:52:45;;;;;;;0.85;0.30;;;19.90;63.00;;;;;;4991535;28;20106;-72
2023/05/06 04:55:12;;;;;;;0.60;0.20;;;19.80;63.00;;;;;;4993012;28;20054;-72
2023/05/06 04:57:39;;;;;;;0.60;0.20;;;19.90;63.10;;;;;;4992647;28;20423;-73
2023/05/06 05:00:08;;;;;;;1.13;0.28;;;19.90;63.00;;;;;;4991299;28;20046;-72
2023/05/06 05:02:37;;;;;;;0.90;0.15;;;19.90;63.00;;;;;;4992868;28;20133;-72
2023/05/06 05:05:04;;;;;;;0.82;0.30;;;19.90;63.10;;;;;;4992444;28;20061;-72
2023/05/06 05:07:31;;;;;;;0.77;0.25;;;19.90;63.10;;;;;;4992874;28;20050;-72
2023/05/06 05:09:58;;;;;;;0.60;0.28;;;19.90;63.00;;;;;;4992756;28;20054;-72
2023/05/06 05:12:25;;;;;;;0.80;0.20;;;19.90;63.00;;;;;;4991517;28;20054;-72
2023/05/06 05:14:52;;;;;;;0.80;0.20;;;19.80;63.00;;;;;;4992471;28;20062;-72
2023/05/06 05:17:19;;;;;;;0.80;0.22;;;19.90;63.10;;;;;;4992271;28;20061;-71
2023/05/06 05:19:47;;;;;;;0.50;0.35;;;19.90;63.00;;;;;;4991128;28;20050;-72
2023/05/06 05:22:14;;;;;;;0.85;0.20;;;19.90;63.00;;;;;;4992435;28;20050;-72
2023/05/06 05:24:41;;;;;;;0.80;0.40;;;19.90;63.10;;;;;;4992238;28;20057;-72
2023/05/06 05:27:09;;;;;;;0.65;0.20;;;19.90;63.00;;;;;;4992251;28;20069;-72
2023/05/06 05:29:36;;;;;;;0.60;0.20;;;19.90;63.00;;;;;;4992253;28;20388;-72
2023/05/06 05:32:03;;;;;;;0.63;0.20;;;19.90;63.00;;;;;;4992056;28;20393;-73
2023/05/06 05:34:31;;;;;;;0.85;0.22;;;19.90;63.00;;;;;;4991866;28;20078;-72
2023/05/06 05:36:59;;;;;;;0.80;0.22;;;19.90;62.90;;;;;;4992206;28;20055;-72
2023/05/06 05:39:26;;;;;;;1.02;0.20;;;19.90;63.00;;;;;;4990542;28;20063;-72
2023/05/06 05:41:53;;;;;;;1.10;0.30;;;19.90;62.90;;;;;;4992054;28;20054;-72
2023/05/06 05:44:20;;;;;;;0.82;0.25;;;19.90;62.90;;;;;;4990486;28;20050;-72
2023/05/06 05:46:47;;;;;;;1.00;0.47;;;19.90;62.90;;;;;;4991761;28;20058;-72
2023/05/06 05:49:14;;;;;;;0.90;0.25;;;19.90;62.90;;;;;;4991993;28;20121;-72
2023/05/06 05:51:41;;;;;;;1.00;0.30;;;19.90;62.90;;;;;;4992047;28;20046;-72
2023/05/06 05:54:09;;;;;;;0.90;0.20;;;19.90;62.90;;;;;;4991949;28;20074;-72
2023/05/06 05:56:36;;;;;;;0.68;0.20;;;19.90;62.90;;;;;;4990266;28;20050;-71
2023/05/06 05:59:03;;;;;;;0.60;0.20;;;19.90;62.90;;;;;;4991767;28;20046;-72
2023/05/06 06:01:30;;;;;;;0.80;0.30;;;19.90;62.90;;;;;;4991729;28;20050;-72
2023/05/06 06:03:57;;;;;;;0.70;0.25;;;19.90;62.90;;;;;;4990552;28;20054;-71
2023/05/06 06:06:25;;;;;;;0.80;0.30;;;19.90;62.90;;;;;;4990128;28;20125;-72
2023/05/06 06:08:52;;;;;;;0.75;0.20;;;19.90;62.90;;;;;;4991908;28;20116;-72
2023/05/06 06:11:21;;;;;;;0.82;0.30;;;19.90;62.90;;;;;;4991619;28;20459;-72
2023/05/06 06:13:48;;;;;;;0.80;0.30;;;19.90;62.90;;;;;;4991364;28;20050;-72
2023/05/06 06:16:15;;;;;;;0.77;0.10;;;19.90;62.90;;;;;;4991548;28;20061;-72
2023/05/06 06:18:42;;;;;;;0.80;0.28;;;19.90;62.90;;;;;;4989983;28;20058;-72
2023/05/06 06:21:08;;;;;;;1.08;0.30;;;19.90;62.90;;;;;;4991165;28;20503;-71
2023/05/06 06:23:35;;;;;;;0.70;0.15;;;19.90;62.90;;;;;;4989807;28;20054;-72
2023/05/06 06:26:03;;;;;;;0.82;0.20;;;19.90;62.90;;;;;;4990928;28;20070;-72
2023/05/06 06:28:31;;;;;;;0.77;0.20;;;19.90;62.90;;;;;;4989463;28;20058;-72
2023/05/06 06:30:58;;;;;;;0.70;0.30;;;19.90;62.90;;;;;;4991373;28;20053;-72
2023/05/06 06:33:25;;;;;;;1.20;0.20;;;19.90;62.90;;;;;;4991052;28;20420;-71
2023/05/06 06:35:52;;;;;;;0.88;0.32;;;19.90;62.90;;;;;;4991084;28;20089;-72
2023/05/06 06:38:19;;;;;;;0.55;0.10;;;19.90;62.90;;;;;;4989572;28;20061;-72
2023/05/06 06:40:46;;;;;;;0.80;0.22;;;19.90;62.90;;;;;;4991013;28;20050;-72
2023/05/06 06:43:13;;;;;;;0.90;0.30;;;19.90;62.90;;;;;;4989535;28;20058;-72
2023/05/06 06:45:41;;;;;;;0.70;0.20;;;19.90;62.90;;;;;;4989273;28;20054;-72
2023/05/06 06:48:08;;;;;;;0.70;0.30;;;19.90;62.90;;;;;;4989390;28;20050;-72
2023/05/06 06:50:35;;;;;;;0.68;0.20;;;20.00;63.00;;;;;;4989427;28;20403;-71
2023/05/06 06:53:02;;;;;;;0.93;0.22;;;19.90;62.90;;;;;;4989722;28;20050;-72
2023/05/06 06:55:29;;;;;;;0.70;0.30;;;19.90;62.90;;;;;;4989349;28;20128;-70
2023/05/06 06:57:56;;;;;;;0.75;0.22;;;19.90;62.90;;;;;;4990633;28;20563;-72
2023/05/06 07:00:23;;;;;;;0.68;0.17;;;20.00;62.90;;;;;;4990763;28;20053;-72
2023/05/06 07:02:51;;;;;;;0.82;0.30;;;19.90;62.90;;;;;;4989555;28;20061;-71
2023/05/06 07:05:18;;;;;;;0.77;0.22;;;20.00;63.00;;;;;;4990941;28;20052;-72
2023/05/06 07:07:45;;;;;;;0.70;0.20;;;20.00;62.90;;;;;;4990769;28;20065;-71
2023/05/06 07:10:12;;;;;;;0.80;0.20;;;20.00;62.90;;;;;;4990600;28;20058;-72
2023/05/06 07:12:39;;;;;;;0.60;0.20;;;19.90;62.90;;;;;;4990565;28;20388;-72
2023/05/06 07:15:07;;;;;;;0.90;0.30;;;20.00;63.60;;;;;;4990845;28;20050;-71
2023/05/06 07:17:34;;;;;;;0.50;0.10;;;20.00;63.00;;;;;;4990850;28;20050;-72
2023/05/06 07:20:02;;;;;;;1.02;0.38;;;19.90;62.90;;;;;;4990945;28;20105;-72
2023/05/06 07:22:29;;;;;;;0.60;0.20;;;20.00;63.00;;;;;;4989707;28;20400;-72
2023/05/06 07:24:56;;;;;;;0.80;0.20;;;19.90;62.90;;;;;;4989297;28;20054;-71
2023/05/06 07:27:24;;;;;;;0.70;0.20;;;20.00;62.90;;;;;;4990508;28;20081;-72
2023/05/06 07:29:51;;;;;;;0.90;0.15;;;20.00;63.00;;;;;;4990759;28;20050;-70
2023/05/06 07:32:18;;;;;;;0.65;0.20;;;20.00;62.90;;;;;;4989527;28;20046;-71
2023/05/06 07:34:45;;;;;;;0.73;0.20;;;19.90;62.90;;;;;;4990507;28;20542;-71
2023/05/06 07:37:13;;;;;;;0.98;0.50;;;20.00;62.90;;;;;;4990339;28;20538;-71
2023/05/06 07:39:40;;;;;;;0.85;0.40;;;20.00;62.90;;;;;;4990645;28;20052;-72
2023/05/06 07:42:09;;;;;;;0.80;0.20;;;20.00;62.90;;;;;;4989046;28;20066;-71
2023/05/06 07:44:36;;;;;;;0.63;0.32;;;20.00;62.90;;;;;;4990022;28;20050;-70
2023/05/06 07:47:03;;;;;;;1.00;0.20;;;20.00;63.00;;;;;;4988594;28;20050;-71
2023/05/06 07:49:32;;;;;;;0.60;0.20;;;20.00;63.60;;;;;;4993186;28;20062;-72
2023/05/06 07:51:59;;;;;;;0.60;0.20;;;20.00;63.00;;;;;;5010026;28;20125;-72
2023/05/06 07:54:27;;;;;;;0.60;0.20;;;20.00;62.90;;;;;;5009923;28;20049;-70
2023/05/06 07:56:54;;;;;;;0.90;0.32;;;20.00;63.00;;;;;;5011980;28;20053;-71
2023/05/06 07:59:21;;;;;;;0.63;0.30;;;20.00;63.00;;;;;;5012400;28;20058;-72
2023/05/06 08:01:48;;;;;;;0.50;0.20;;;20.00;63.00;;;;;;5013471;28;20061;-72
2023/05/06 08:04:15;;;;;;;1.58;0.13;;;20.00;63.00;;;;;;5013482;28;20064;-71
2023/05/06 08:06:43;;;;;;;0.88;0.30;;;20.00;63.00;;;;;;5011947;28;20064;-72
2023/05/06 08:09:11;;;;;;;0.68;0.20;;;20.00;63.00;;;;;;5011800;28;20054;-72
2023/05/06 08:11:39;;;;;;;0.73;0.20;;;20.00;63.00;;;;;;5013558;28;20089;-71
2023/05/06 08:14:06;;;;;;;0.60;0.20;;;20.00;62.90;;;;;;5011685;28;20059;-72
2023/05/06 08:16:33;;;;;;;0.70;0.30;;;20.00;62.90;;;;;;5013163;28;20499;-71
2023/05/06 08:19:00;;;;;;;0.80;0.30;;;20.00;62.90;;;;;;5011950;28;20050;-71
2023/05/06 08:21:27;;;;;;;0.60;0.20;;;20.00;62.90;;;;;;5011939;28;20062;-71
2023/05/06 08:23:54;;;;;;;0.70;0.35;;;20.00;62.90;;;;;;5012878;28;20057;-72
2023/05/06 08:26:21;;;;;;;0.75;0.20;;;20.00;63.50;;;;;;5013120;28;20057;-71
2023/05/06 08:28:49;;;;;;;0.90;0.30;;;20.00;62.90;;;;;;5011281;28;20062;-72
2023/05/06 08:31:16;;;;;;;0.50;0.20;;;20.00;62.90;;;;;;5012901;28;20086;-72
2023/05/06 08:33:43;;;;;;;0.80;0.35;;;20.00;62.90;;;;;;5011853;28;20084;-72
2023/05/06 08:36:10;;;;;;;0.50;0.20;;;20.00;62.90;;;;;;5012903;28;20041;-71
2023/05/06 08:38:37;;;;;;;1.00;0.22;;;20.00;62.90;;;;;;5012654;28;20050;-71
2023/05/06 08:41:09;;;;;;;0.80;0.20;;;20.00;62.90;;;;;;5012888;28;20049;-71
2023/05/06 08:43:41;;;;;;;0.90;0.30;;;20.00;62.90;;;;;;5012312;28;20050;-72
2023/05/06 08:46:09;;;;;;;0.82;0.22;;;20.00;62.90;;;;;;5012409;28;20053;-72
2023/05/06 08:48:36;;;;;;;0.70;0.20;;;20.00;62.90;;;;;;4997617;28;20046;-72
2023/05/06 08:51:04;;;;;;;0.90;0.20;;;20.00;62.90;;;;;;4991729;28;20058;-71
2023/05/06 08:53:33;;;;;;;0.88;0.40;;;20.00;62.90;;;;;;4993047;28;20140;-72
2023/05/06 08:56:03;;;;;;;0.90;0.28;;;20.00;62.90;;;;;;4991741;28;20061;-72
2023/05/06 08:58:33;;;;;;;0.80;0.20;;;20.10;63.00;;;;;;4992889;28;20151;-71
2023/05/06 09:01:00;;;;;;;0.80;0.20;;;20.00;62.90;;;;;;4992698;28;20650;-72
2023/05/06 09:03:28;;;;;;;0.70;0.20;;;20.00;62.90;;;;;;4992711;28;20760;-72
2023/05/06 09:05:57;;;;;;;0.63;0.20;;;20.00;63.00;;;;;;4991477;28;20494;-71
2023/05/06 09:08:24;;;;;;;0.77;0.20;;;20.10;63.00;;;;;;4991161;28;20073;-72
2023/05/06 09:10:51;;;;;;;0.98;0.38;;;20.10;63.00;;;;;;4991352;28;20057;-72
2023/05/06 09:13:19;;;;;;;0.70;0.30;;;20.10;62.90;;;;;;4992480;28;20054;-71
2023/05/06 09:15:48;;;;;;;0.82;0.20;;;20.10;63.00;;;;;;4992710;28;20153;-70
2023/05/06 09:18:15;;;;;;;0.85;0.28;;;20.10;63.00;;;;;;4992398;28;20061;-71
2023/05/06 09:20:45;;;;;;;0.98;0.30;;;20.10;63.00;;;;;;4991272;28;20715;-71
2023/05/06 09:23:14;;;;;;;0.50;0.13;;;20.10;62.90;;;;;;4991475;28;20546;-71
2023/05/06 09:25:42;;;;;;;0.75;0.22;;;20.10;62.90;;;;;;4992137;28;20050;-71
2023/05/06 09:28:10;;;;;;;0.65;0.20;;;20.10;62.90;;;;;;4990758;28;20068;-71
2023/05/06 09:30:39;;;;;;;0.73;0.22;;;20.10;62.90;;;;;;4992315;28;20047;-71
2023/05/06 09:33:06;;;;;;;0.80;0.30;;;20.10;63.00;;;;;;4992254;28;20056;-70
2023/05/06 09:35:37;;;;;;;0.77;0.20;;;20.10;63.00;;;;;;4991989;28;20533;-72
2023/05/06 09:38:06;;;;;;;1.13;0.35;;;20.20;63.00;;;;;;4992071;28;20129;-72
2023/05/06 09:40:34;;;;;;;0.70;0.30;;;20.20;63.00;;;;;;4992304;28;20046;-71
2023/05/06 09:43:01;;;;;;;0.75;0.30;;;20.20;63.00;;;;;;4990332;28;20046;-71
2023/05/06 09:45:29;;;;;;;1.13;0.40;;;20.20;63.00;;;;;;4991960;28;20101;-71
2023/05/06 09:47:56;;;;;;;0.90;0.30;;;20.20;63.00;;;;;;4991826;28;20061;-72
2023/05/06 09:50:24;;;;;;;0.50;0.15;;;20.20;63.00;;;;;;4991935;28;20046;-71
2023/05/06 09:52:51;;;;;;;0.68;0.20;;;20.30;63.00;;;;;;4991974;28;20054;-71
2023/05/06 09:55:21;;;;;;;0.82;0.35;;;20.30;62.90;;;;;;4990612;28;20460;-72
2023/05/06 09:57:50;;;;;;;0.70;0.20;;;20.30;62.90;;;;;;4991521;28;20054;-71
2023/05/06 10:00:17;;;;;;;0.70;0.22;;;20.30;62.90;;;;;;4990585;28;20109;-71
2023/05/06 10:02:46;;;;;;;1.05;0.20;;;20.30;62.80;;;;;;4991707;28;20104;-72
2023/05/06 10:05:13;;;;;;;1.10;0.30;;;20.30;62.80;;;;;;4991547;28;20054;-71
2023/05/06 10:07:41;;;;;;;0.57;0.20;;;20.30;62.80;;;;;;4990297;28;20104;-72
2023/05/06 10:10:10;;;;;;;0.80;0.22;;;20.40;62.90;;;;;;4989944;28;20046;-72
2023/05/06 10:12:39;;;;;;;0.80;0.22;;;20.40;62.90;;;;;;4991132;28;20577;-72
2023/05/06 10:15:07;;;;;;;0.95;0.32;;;20.40;62.80;;;;;;4991506;28;20050;-72
2023/05/06 10:17:35;;;;;;;0.90;0.40;;;20.40;62.90;;;;;;4990082;28;20058;-72
2023/05/06 10:20:03;;;;;;;0.63;0.38;;;20.40;62.90;;;;;;4989863;28;20054;-71
2023/05/06 10:22:40;;;;;;;0.90;0.30;;;20.40;62.90;;;;;;4991258;28;20054;-72
2023/05/06 10:25:18;;;;;;;0.82;0.20;;;20.40;63.50;;;;;;4991206;28;20054;-72
2023/05/06 10:27:47;;;;;;;1.00;0.25;;;20.50;62.90;;;;;;4989664;28;20073;-72
2023/05/06 10:30:16;;;;;;;1.05;0.30;;;20.50;62.90;;;;;;4991233;28;20054;-72
2023/05/06 10:32:45;;;;;;;0.88;0.43;;;20.50;62.90;;;;;;4991433;28;20085;-72
2023/05/06 10:35:19;;;;;;;1.67;0.60;;;20.50;62.90;;;;;;4989847;28;20054;-72
2023/05/06 10:37:49;;;;;;;0.63;0.20;;;20.50;62.90;;;;;;4991508;28;20050;-72
2023/05/06 10:40:16;;;;;;;0.80;0.57;;;20.60;62.90;;;;;;4991140;28;20073;-72
2023/05/06 10:42:43;;;;;;;0.90;0.30;;;20.50;62.90;;;;;;4990965;28;20082;-71
2023/05/06 10:45:14;;;;;;;0.55;0.20;;;20.50;62.90;;;;;;4991323;28;20053;-72
2023/05/06 10:48:09;;;;;;;0.70;0.20;;;20.60;63.00;;;;;;4991110;28;20152;-72
2023/05/06 10:50:36;;;;;;;0.88;0.30;;;20.60;63.10;;;;;;4990931;28;20054;-72
2023/05/06 10:53:03;;;;;;;0.80;0.30;;;20.60;63.00;;;;;;4991189;28;20133;-71
2023/05/06 10:55:31;;;;;;;1.00;0.38;;;20.60;63.00;;;;;;4990968;28;20058;-71
2023/05/06 10:58:02;;;;;;;0.63;0.25;;;20.60;63.00;;;;;;4989801;28;20222;-71
2023/05/06 11:00:33;;;;;;;0.75;0.30;;;20.70;63.10;;;;;;4991244;28;20397;-72
2023/05/06 11:03:06;;;;;;;0.73;0.22;;;20.60;62.90;;;;;;4990720;28;20419;-72
2023/05/06 11:05:47;;;;;;;0.70;0.30;;;20.70;63.00;;;;;;4989753;28;20408;-71
2023/05/06 11:08:21;;;;;;;1.17;0.40;;;20.70;63.10;;;;;;4991072;28;20050;-71
2023/05/06 11:10:48;;;;;;;0.80;0.30;;;20.70;63.00;;;;;;4989760;28;20050;-72
2023/05/06 11:13:22;;;;;;;0.50;0.20;;;20.70;63.00;;;;;;4990744;28;20054;-71
2023/05/06 11:15:52;;;;;;;0.50;0.20;;;20.70;63.00;;;;;;4989228;28;20427;-71
2023/05/06 11:18:42;;;;;;;0.75;0.22;;;20.80;63.00;;;;;;4990672;28;20038;-72
2023/05/06 11:21:40;;;;;;;0.70;0.20;;;20.80;63.10;;;;;;4983351;28;20053;-71
2023/05/06 11:24:12;;;;;;;0.65;0.20;;;20.80;63.10;;;;;;4989262;28;20062;-72
2023/05/06 11:26:42;;;;;;;0.80;0.38;;;20.80;63.00;;;;;;4990781;28;20144;-72
2023/05/06 11:29:10;;;;;;;0.93;0.30;;;20.80;63.00;;;;;;4990552;28;20093;-72
2023/05/06 11:31:42;;;;;;;0.68;0.22;;;20.80;63.00;;;;;;4990054;28;20386;-72
2023/05/06 11:34:12;;;;;;;0.98;0.22;;;20.80;63.10;;;;;;4990528;28;20056;-71
2023/05/06 11:37:01;;;;;;;0.98;0.30;;;20.80;63.10;;;;;;4989190;28;20058;-72
2023/05/06 11:39:29;;;;;;;0.70;0.30;;;20.80;63.10;;;;;;4990509;28;20050;-73
2023/05/06 11:41:58;;;;;;;0.90;0.20;;;20.90;63.10;;;;;;4990222;28;20046;-71
2023/05/06 11:44:30;;;;;;;0.63;0.22;;;20.90;63.10;;;;;;4988883;28;20093;-72
2023/05/06 11:46:59;;;;;;;0.73;0.22;;;20.90;63.10;;;;;;4990066;28;20062;-72
2023/05/06 11:49:27;;;;;;;;;;;20.90;63.10;;;;;;4990781;28;20050;-71
2023/05/06 11:51:54;;;;;;;0.50;0.20;;;20.90;63.20;;;;;;4988977;28;20016;-72
2023/05/06 11:54:21;;;;;;;0.68;0.20;;;21.00;63.10;;;;;;4990534;28;20050;-72
2023/05/06 11:56:51;;;;;;;0.93;0.25;;;21.00;63.10;;;;;;4989945;28;20059;-72
2023/05/06 11:59:25;;;;;;;0.90;0.20;;;21.00;63.10;;;;;;4988652;28;20146;-71
2023/05/06 12:01:52;;;;;;;0.57;0.20;;;21.00;63.10;;;;;;4990362;28;20054;-72
2023/05/06 12:04:20;;;;;;;0.75;0.30;;;21.00;63.10;;;;;;4988983;28;20069;-71
2023/05/06 12:06:47;;;;;;;0.73;0.20;;;21.00;63.10;;;;;;4990132;28;20050;-72
2023/05/06 12:09:14;;;;;;;1.00;0.20;;;21.00;63.10;;;;;;4989959;28;20058;-72
2023/05/06 12:11:43;;;;;;;0.90;0.22;;;21.00;63.20;;;;;;4990118;28;20411;-72
2023/05/06 12:14:10;;;;;;;0.63;0.20;;;21.00;63.20;;;;;;4988336;28;20054;-72
2023/05/06 12:16:38;;;;;;;1.08;0.20;;;21.10;63.20;;;;;;4988633;28;20739;-72
2023/05/06 12:19:05;;;;;;;0.77;0.20;;;21.10;63.30;;;;;;4990233;28;20080;-70
2023/05/06 12:21:37;;;;;;;0.93;0.30;;;21.10;63.30;;;;;;4990203;28;20055;-72
2023/05/06 12:24:05;;;;;;;0.77;0.20;;;21.10;63.30;;;;;;5006172;28;20057;-72
2023/05/06 12:26:46;;;;;;;0.70;0.22;;;21.10;63.20;;;;;;5009583;28;20148;-72
2023/05/06 12:29:18;;;;;;;0.80;0.30;;;21.10;63.20;;;;;;5009248;28;20065;-71
2023/05/06 12:31:46;;;;;;;1.30;0.38;;;21.20;63.20;;;;;;5008267;28;20054;-72
2023/05/06 12:34:14;;;;;;;0.88;0.40;;;21.20;63.80;;;;;;5008197;28;20495;-71
2023/05/06 12:36:45;;;;;;;1.00;0.30;;;21.20;63.70;;;;;;5008221;28;20116;-72
2023/05/06 12:39:13;;;;;;;0.80;0.22;;;21.20;63.20;;;;;;5008036;28;20108;-71
2023/05/06 12:41:41;;;;;;;0.70;0.20;;;21.20;63.20;;;;;;5009554;28;20049;-72
2023/05/06 12:44:33;;;;;;;0.73;0.30;;;21.20;63.20;;;;;;5012611;28;20049;-71
2023/05/06 12:47:01;;;;;;;0.47;0.10;;;21.20;63.30;;;;;;5002099;28;20042;-71
2023/05/06 12:49:47;;;;;;;0.88;0.40;;;21.20;63.30;;;;;;4992963;28;20058;-72
2023/05/06 12:52:16;;;;;;;0.60;0.20;;;21.20;63.30;;;;;;4991497;28;20065;-72
2023/05/06 12:54:44;;;;;;;0.80;0.20;;;21.20;63.40;;;;;;4992921;28;20120;-71